Time;durP1;ratioP1;P1;durP2;ratioP2;P2;SDS_P1;SDS_P2;PMS_P1;PMS_P2;Temp;Humidity;BMP_temperature;BMP_pressure;BME280_temperature;BME280_humidity;BME280_pressure;Samples;Min_cycle;Max_cycle;Signal;HPM_P1;HPM_P2
2023/12/02 00:00:03;;;;;;;31.00;13.43;;;;;;;0.25;100.00;96773.50;5033924;28;20219;-79
2023/12/02 00:02:30;;;;;;;25.17;13.57;;;;;;;0.29;100.00;96781.06;5035018;28;20370;-79
2023/12/02 00:04:56;;;;;;;24.63;13.40;;;;;;;0.23;100.00;96770.97;5034796;28;20574;-80
2023/12/02 00:07:23;;;;;;;25.63;13.73;;;;;;;0.24;100.00;96777.84;5034848;28;20214;-80
2023/12/02 00:09:49;;;;;;;28.43;13.03;;;;;;;0.22;100.00;96764.13;5034721;28;20215;-80
2023/12/02 00:12:17;;;;;;;26.43;12.27;;;;;;;0.17;100.00;96766.09;5034717;28;20232;-80
2023/12/02 00:14:44;;;;;;;27.00;13.83;;;;;;;0.19;100.00;96769.44;5034103;28;20229;-80
2023/12/02 00:17:10;;;;;;;30.53;14.53;;;;;;;0.24;100.00;96777.00;5034418;28;20208;-80
2023/12/02 00:19:37;;;;;;;26.73;13.63;;;;;;;0.22;100.00;96784.91;5034993;28;20205;-80
2023/12/02 00:22:06;;;;;;;30.87;14.77;;;;;;;0.20;100.00;96780.69;5034523;28;20251;-80
2023/12/02 00:24:32;;;;;;;31.60;13.53;;;;;;;0.20;100.00;96786.72;5033916;28;20209;-80
2023/12/02 00:26:59;;;;;;;25.03;13.70;;;;;;;0.23;100.00;96786.56;5034146;28;20216;-80
2023/12/02 00:29:27;;;;;;;26.37;14.00;;;;;;;0.22;100.00;96792.69;5034607;28;20216;-80
2023/12/02 00:31:53;;;;;;;28.80;14.20;;;;;;;0.23;100.00;96796.97;5034066;28;20310;-79
2023/12/02 00:34:21;;;;;;;24.40;12.80;;;;;;;0.26;100.00;96796.78;5033875;28;20225;-79
2023/12/02 00:36:50;;;;;;;25.07;13.80;;;;;;;0.30;100.00;96797.47;5034691;28;20209;-80
2023/12/02 00:39:16;;;;;;;24.67;13.10;;;;;;;0.20;100.00;96797.09;5034663;28;20204;-79
2023/12/02 00:41:46;;;;;;;27.20;13.03;;;;;;;0.16;100.00;96805.97;5034164;28;20236;-79
2023/12/02 00:44:12;;;;;;;26.73;12.83;;;;;;;0.18;100.00;96806.75;5033028;28;20702;-79
2023/12/02 00:46:40;;;;;;;26.07;13.30;;;;;;;0.18;100.00;96813.69;5033678;28;20218;-80
2023/12/02 00:49:07;;;;;;;26.30;14.23;;;;;;;0.20;100.00;96807.50;5033647;28;20208;-79
2023/12/02 00:51:33;;;;;;;26.37;13.90;;;;;;;0.26;100.00;96799.41;5033445;28;20229;-80
2023/12/02 00:54:00;;;;;;;23.67;13.27;;;;;;;0.25;100.00;96805.50;5033514;28;20235;-79
2023/12/02 00:56:26;;;;;;;25.67;13.27;;;;;;;0.12;100.00;96814.84;5034105;28;20580;-79
2023/12/02 00:58:53;;;;;;;26.50;13.50;;;;;;;0.20;100.00;96817.88;5033437;28;20223;-80
2023/12/02 01:01:19;;;;;;;27.43;13.70;;;;;;;0.18;100.00;96814.53;5033378;28;20231;-80
2023/12/02 01:03:47;;;;;;;28.07;14.20;;;;;;;0.21;100.00;96817.00;5033053;28;20560;-79
2023/12/02 01:06:13;;;;;;;23.13;12.47;;;;;;;0.11;100.00;96813.16;5033359;28;20215;-79
2023/12/02 01:08:40;;;;;;;25.23;13.03;;;;;;;0.12;100.00;96803.59;5032965;28;20220;-80
2023/12/02 01:11:06;;;;;;;24.53;13.30;;;;;;;0.18;100.00;96809.34;5033171;28;20228;-80
2023/12/02 01:13:36;;;;;;;27.73;13.80;;;;;;;0.15;100.00;96814.69;5033577;28;20220;-80
2023/12/02 01:16:01;;;;;;;29.40;14.30;;;;;;;0.14;100.00;96818.19;5033111;28;20212;-80
2023/12/02 01:18:28;;;;;;;25.83;12.50;;;;;;;0.12;100.00;96816.56;5033812;28;20557;-80
2023/12/02 01:20:56;;;;;;;26.93;13.43;;;;;;;0.10;100.00;96815.81;5033006;28;20212;-80
2023/12/02 01:23:25;;;;;;;28.27;14.50;;;;;;;0.06;100.00;96815.13;5033591;28;20216;-78
2023/12/02 01:25:51;;;;;;;26.10;12.83;;;;;;;0.11;100.00;96820.94;5032892;28;20208;-78
2023/12/02 01:28:18;;;;;;;23.93;13.00;;;;;;;0.06;100.00;96822.91;5033634;28;20719;-79
2023/12/02 01:30:44;;;;;;;26.77;14.50;;;;;;;0.11;100.00;96835.69;5033385;28;20204;-78
2023/12/02 01:33:11;;;;;;;26.23;13.10;;;;;;;0.06;100.00;96833.31;5033274;28;20209;-79
2023/12/02 01:35:37;;;;;;;28.07;13.37;;;;;;;0.07;100.00;96829.78;5032672;28;20228;-79
2023/12/02 01:38:05;;;;;;;26.93;14.50;;;;;;;0.10;100.00;96827.06;5033055;28;20219;-79
2023/12/02 01:40:31;;;;;;;26.17;13.33;;;;;;;-0.01;100.00;96828.47;5033339;28;20213;-78
2023/12/02 01:42:58;;;;;;;24.63;12.73;;;;;;;0.05;100.00;96833.38;5033320;28;20236;-78
2023/12/02 01:45:24;;;;;;;26.43;13.33;;;;;;;0.01;100.00;96843.06;5033151;28;20209;-78
2023/12/02 01:47:52;;;;;;;24.33;12.67;;;;;;;-0.01;100.00;96846.66;5033738;28;20224;-78
2023/12/02 01:50:19;;;;;;;23.57;12.90;;;;;;;-0.04;100.00;96845.03;5033624;28;20209;-79
2023/12/02 01:52:45;;;;;;;24.40;13.23;;;;;;;-0.04;100.00;96845.03;5033376;28;20232;-78
2023/12/02 01:55:13;;;;;;;25.40;12.93;;;;;;;0.00;100.00;96835.38;5032688;28;20232;-78
2023/12/02 01:57:40;;;;;;;23.10;12.87;;;;;;;-0.02;100.00;96826.81;5033816;28;20205;-78
2023/12/02 02:00:09;;;;;;;25.60;11.83;;;;;;;-0.01;100.00;96828.47;5032491;28;20216;-78
2023/12/02 02:02:35;;;;;;;23.47;12.17;;;;;;;-0.02;100.00;96827.66;5033073;28;20263;-80
2023/12/02 02:05:02;;;;;;;25.43;12.73;;;;;;;-0.12;100.00;96839.38;5032802;28;20634;-80
2023/12/02 02:07:29;;;;;;;25.17;13.23;;;;;;;-0.10;100.00;96849.72;5033735;28;20213;-80
2023/12/02 02:09:56;;;;;;;23.67;12.17;;;;;;;-0.07;100.00;96849.56;5033601;28;20696;-78
2023/12/02 02:12:24;;;;;;;24.33;12.33;;;;;;;-0.13;100.00;96864.59;5033552;28;20234;-80
2023/12/02 02:14:50;;;;;;;24.17;12.37;;;;;;;-0.08;100.00;96874.69;5032875;28;20256;-78
2023/12/02 02:17:16;;;;;;;23.43;12.47;;;;;;;-0.12;100.00;96867.94;5033359;28;20215;-78
2023/12/02 02:19:43;;;;;;;25.63;12.33;;;;;;;-0.12;100.00;96867.13;5033908;28;20288;-79
2023/12/02 02:22:11;;;;;;;23.83;12.97;;;;;;;-0.14;100.00;96857.72;5036239;28;20234;-79
2023/12/02 02:24:37;;;;;;;28.00;11.97;;;;;;;-0.14;100.00;96842.97;5037806;28;20204;-80
2023/12/02 02:27:04;;;;;;;22.90;12.07;;;;;;;-0.14;100.00;96849.94;5038129;28;20239;-78
2023/12/02 02:29:31;;;;;;;24.87;12.60;;;;;;;-0.16;100.00;96853.41;5038879;28;20208;-78
2023/12/02 02:31:57;;;;;;;25.33;12.83;;;;;;;-0.17;100.00;96846.56;5037971;28;20228;-80
2023/12/02 02:34:25;;;;;;;26.13;13.47;;;;;;;-0.23;100.00;96850.34;5036295;28;20240;-79
2023/12/02 02:36:52;;;;;;;23.33;12.57;;;;;;;-0.16;100.00;96840.44;5037373;28;20205;-81
2023/12/02 02:39:19;;;;;;;25.87;13.60;;;;;;;-0.13;100.00;96845.50;5036793;28;20205;-78
2023/12/02 02:41:46;;;;;;;27.13;13.30;;;;;;;-0.20;100.00;96848.44;5036886;28;20904;-79
2023/12/02 02:44:12;;;;;;;27.93;14.27;;;;;;;-0.17;100.00;96854.34;5036207;28;20221;-78
2023/12/02 02:46:39;;;;;;;25.20;12.77;;;;;;;-0.16;100.00;96862.97;5036890;28;20216;-79
2023/12/02 02:49:05;;;;;;;25.90;12.57;;;;;;;-0.24;100.00;96869.44;5037314;28;20705;-80
2023/12/02 02:51:32;;;;;;;26.60;13.23;;;;;;;-0.18;100.00;96871.75;5036790;28;20232;-81
2023/12/02 02:53:59;;;;;;;25.93;12.90;;;;;;;-0.17;100.00;96886.41;5035830;28;20219;-80
2023/12/02 02:56:26;;;;;;;28.10;13.20;;;;;;;-0.22;100.00;96882.25;5036694;28;20212;-80
2023/12/02 02:58:53;;;;;;;20.30;12.33;;;;;;;-0.22;100.00;96887.47;5036659;28;20215;-79
2023/12/02 03:01:19;;;;;;;28.53;13.27;;;;;;;-0.17;100.00;96879.47;5036084;28;20687;-79
2023/12/02 03:03:46;;;;;;;27.67;14.33;;;;;;;-0.08;100.00;96882.47;5036128;28;20561;-79
2023/12/02 03:06:12;;;;;;;22.83;12.43;;;;;;;-0.10;100.00;96881.69;5036751;28;20216;-79
2023/12/02 03:08:39;;;;;;;27.57;13.13;;;;;;;-0.15;100.00;96877.63;5036450;28;20213;-79
2023/12/02 03:11:06;;;;;;;25.37;12.93;;;;;;;-0.16;100.00;96875.97;5035971;28;20233;-81
2023/12/02 03:13:34;;;;;;;26.70;13.50;;;;;;;-0.19;100.00;96877.88;5035921;28;20208;-79
2023/12/02 03:16:00;;;;;;;24.77;13.33;;;;;;;-0.21;100.00;96864.94;5035757;28;20233;-79
2023/12/02 03:18:27;;;;;;;30.40;13.77;;;;;;;-0.18;100.00;96866.56;5035619;28;20212;-79
2023/12/02 03:20:53;;;;;;;29.50;13.93;;;;;;;-0.22;100.00;96866.69;5035674;28;20224;-79
2023/12/02 03:23:20;;;;;;;26.43;13.23;;;;;;;-0.22;100.00;96861.50;5035703;28;20236;-79
2023/12/02 03:25:46;;;;;;;27.10;13.53;;;;;;;-0.18;100.00;96869.16;5035221;28;20215;-79
2023/12/02 03:28:13;;;;;;;25.57;12.40;;;;;;;-0.19;100.00;96875.25;5035927;28;20581;-79
2023/12/02 03:30:41;;;;;;;25.77;12.80;;;;;;;-0.22;100.00;96878.00;5035620;28;20219;-79
2023/12/02 03:33:08;;;;;;;26.73;13.37;;;;;;;-0.24;100.00;96882.41;5035454;28;20217;-80
2023/12/02 03:35:34;;;;;;;23.77;11.23;;;;;;;-0.25;100.00;96885.94;5035360;28;20255;-80
2023/12/02 03:38:01;;;;;;;27.67;12.67;;;;;;;-0.38;100.00;96884.81;5035797;28;20212;-80
2023/12/02 03:40:27;;;;;;;28.77;13.30;;;;;;;-0.38;100.00;96880.47;5035476;28;20231;-79
2023/12/02 03:42:54;;;;;;;25.97;13.03;;;;;;;-0.38;100.00;96890.03;5035357;28;20236;-80
2023/12/02 03:45:21;;;;;;;24.93;12.23;;;;;;;-0.39;100.00;96885.75;5035815;28;20571;-81
2023/12/02 03:47:48;;;;;;;26.50;12.93;;;;;;;-0.35;100.00;96889.84;5036084;28;20208;-80
2023/12/02 03:50:15;;;;;;;27.30;12.83;;;;;;;-0.31;100.00;96896.59;5035682;28;20215;-81
2023/12/02 03:52:42;;;;;;;23.77;12.37;;;;;;;-0.37;100.00;96892.53;5035277;28;20235;-81
2023/12/02 03:55:08;;;;;;;22.33;11.47;;;;;;;-0.34;100.00;96896.72;5035039;28;20603;-81
2023/12/02 03:57:34;;;;;;;25.50;11.93;;;;;;;-0.33;100.00;96906.22;5035902;28;20651;-80
2023/12/02 04:00:00;;;;;;;28.20;12.13;;;;;;;-0.34;100.00;96909.69;5035799;28;20209;-80
2023/12/02 04:02:27;;;;;;;23.13;11.23;;;;;;;-0.39;100.00;96903.91;5034779;28;20242;-80
2023/12/02 04:04:55;;;;;;;21.10;10.27;;;;;;;-0.41;100.00;96906.56;5034978;28;20279;-79
2023/12/02 04:07:22;;;;;;;21.57;10.33;;;;;;;-0.45;100.00;96914.56;5034905;28;20675;-79
2023/12/02 04:09:48;;;;;;;19.70;11.00;;;;;;;-0.48;100.00;96909.50;5035368;28;20217;-79
2023/12/02 04:12:14;;;;;;;22.53;11.80;;;;;;;-0.37;100.00;96920.25;5035653;28;20242;-82
2023/12/02 04:14:41;;;;;;;21.13;11.80;;;;;;;-0.40;100.00;96917.78;5034493;28;20209;-80
2023/12/02 04:17:08;;;;;;;21.23;11.27;;;;;;;-0.36;100.00;96915.00;5035416;28;20678;-78
2023/12/02 04:19:34;;;;;;;20.93;11.70;;;;;;;-0.41;100.00;96923.88;5034789;28;20302;-81
2023/12/02 04:22:02;;;;;;;20.27;10.73;;;;;;;-0.37;100.00;96928.03;5035135;28;20235;-81
2023/12/02 04:24:28;;;;;;;20.40;10.03;;;;;;;-0.38;100.00;96934.13;5034067;28;20212;-80
2023/12/02 04:26:55;;;;;;;21.47;11.10;;;;;;;-0.43;100.00;96938.69;5035391;28;20208;-81
2023/12/02 04:29:21;;;;;;;22.07;11.20;;;;;;;-0.36;100.00;96951.31;5035131;28;20247;-79
2023/12/02 04:31:48;;;;;;;19.10;10.73;;;;;;;-0.42;100.00;96959.38;5034870;28;20229;-80
2023/12/02 04:34:15;;;;;;;20.07;10.53;;;;;;;-0.48;100.00;96962.25;5034377;28;20209;-80
2023/12/02 04:36:43;;;;;;;19.43;10.03;;;;;;;-0.39;100.00;96971.38;5034562;28;20263;-78
2023/12/02 04:39:11;;;;;;;17.77;9.97;;;;;;;-0.39;100.00;96976.56;5034629;28;20303;-78
2023/12/02 04:41:38;;;;;;;18.23;10.63;;;;;;;-0.28;100.00;96967.38;5034193;28;20233;-79
2023/12/02 04:44:05;;;;;;;18.27;10.23;;;;;;;-0.40;100.00;96977.47;5032913;28;20242;-81
2023/12/02 04:46:31;;;;;;;17.77;10.60;;;;;;;-0.39;100.00;96981.78;5034801;28;20527;-78
2023/12/02 04:48:58;;;;;;;19.83;10.20;;;;;;;-0.39;100.00;96977.41;5035049;28;20208;-79
2023/12/02 04:51:24;;;;;;;19.20;10.70;;;;;;;-0.45;100.00;96979.44;5034111;28;20251;-78
2023/12/02 04:53:50;;;;;;;18.97;10.47;;;;;;;-0.48;100.00;96992.53;5033895;28;20209;-79
2023/12/02 04:56:18;;;;;;;20.13;11.27;;;;;;;-0.41;100.00;96987.03;5034105;28;20224;-79
2023/12/02 04:58:45;;;;;;;17.93;9.50;;;;;;;-0.47;100.00;96999.41;5033803;28;20212;-79
2023/12/02 05:01:11;;;;;;;19.47;10.70;;;;;;;-0.47;100.00;97004.59;5033934;28;20238;-80
2023/12/02 05:03:38;;;;;;;20.83;10.70;;;;;;;-0.49;100.00;97001.25;5033939;28;20208;-81
2023/12/02 05:06:05;;;;;;;21.80;11.57;;;;;;;-0.53;100.00;97010.06;5033268;28;20626;-80
2023/12/02 05:08:32;;;;;;;19.13;10.60;;;;;;;-0.50;100.00;97009.94;5033723;28;20244;-78
2023/12/02 05:10:58;;;;;;;17.03;10.30;;;;;;;-0.51;100.00;97013.44;5034176;28;20225;-77
2023/12/02 05:13:26;;;;;;;23.00;12.03;;;;;;;-0.54;100.00;97013.56;5034162;28;20215;-81
2023/12/02 05:15:52;;;;;;;18.30;11.10;;;;;;;-0.52;100.00;97009.13;5033354;28;20228;-80
2023/12/02 05:18:19;;;;;;;17.43;9.93;;;;;;;-0.62;100.00;97007.88;5034230;28;20212;-80
2023/12/02 05:20:45;;;;;;;17.70;9.90;;;;;;;-0.61;100.00;97001.78;5033846;28;20208;-80
2023/12/02 05:23:12;;;;;;;16.73;9.80;;;;;;;-0.58;100.00;97012.00;5034148;28;20222;-81
2023/12/02 05:25:38;;;;;;;16.30;9.70;;;;;;;-0.54;100.00;97014.41;5033877;28;20211;-80
2023/12/02 05:28:05;;;;;;;19.20;10.67;;;;;;;-0.41;100.00;97004.31;5034240;28;20211;-81
2023/12/02 05:30:34;;;;;;;20.23;10.53;;;;;;;-0.58;100.00;97012.00;5033517;28;20226;-80
2023/12/02 05:33:01;;;;;;;17.60;9.80;;;;;;;-0.56;100.00;97007.59;5033344;28;20228;-80
2023/12/02 05:35:28;;;;;;;18.17;9.83;;;;;;;-0.53;100.00;97021.28;5033017;28;20228;-81
2023/12/02 05:37:54;;;;;;;16.73;9.13;;;;;;;-0.56;100.00;97018.00;5034259;28;20216;-79
2023/12/02 05:40:20;;;;;;;16.70;8.90;;;;;;;-0.61;100.00;97023.34;5034112;28;20223;-80
2023/12/02 05:42:47;;;;;;;16.30;10.27;;;;;;;-0.68;100.00;97031.47;5034230;28;20251;-79
2023/12/02 05:45:14;;;;;;;16.50;9.53;;;;;;;-0.65;100.00;97031.34;5033565;28;20259;-80
2023/12/02 05:47:42;;;;;;;15.23;9.37;;;;;;;-0.62;100.00;97041.59;5033385;28;20209;-79
2023/12/02 05:50:09;;;;;;;18.17;9.47;;;;;;;-0.75;100.00;97050.81;5033396;28;20249;-79
2023/12/02 05:52:36;;;;;;;17.93;10.33;;;;;;;-0.77;100.00;97047.41;5033005;28;20232;-79
2023/12/02 05:55:02;;;;;;;17.07;9.17;;;;;;;-0.73;100.00;97051.59;5032673;28;20220;-81
2023/12/02 05:57:29;;;;;;;17.87;9.90;;;;;;;-0.79;100.00;97057.03;5033406;28;20212;-80
2023/12/02 05:59:55;;;;;;;16.73;9.03;;;;;;;-0.74;100.00;97068.06;5033961;28;20215;-78
2023/12/02 06:02:22;;;;;;;16.47;10.03;;;;;;;-0.83;100.00;97074.47;5032943;28;20232;-81
2023/12/02 06:04:49;;;;;;;15.90;9.10;;;;;;;-0.80;100.00;97070.91;5033375;28;20708;-80
2023/12/02 06:07:16;;;;;;;15.50;8.90;;;;;;;-0.83;100.00;97077.06;5032620;28;20590;-80
2023/12/02 06:09:43;;;;;;;14.97;9.13;;;;;;;-0.79;100.00;97076.03;5032992;28;20211;-80
2023/12/02 06:12:10;;;;;;;16.63;9.43;;;;;;;-0.77;100.00;97084.59;5033294;28;20235;-81
2023/12/02 06:14:37;;;;;;;17.03;9.07;;;;;;;-0.81;100.00;97089.97;5033632;28;20216;-80
2023/12/02 06:17:04;;;;;;;19.27;9.87;;;;;;;-0.72;100.00;97081.78;5034592;28;20706;-79
2023/12/02 06:19:30;;;;;;;18.77;9.53;;;;;;;-0.66;100.00;97081.53;5034781;28;20615;-80
2023/12/02 06:21:58;;;;;;;15.13;9.73;;;;;;;-0.68;100.00;97089.38;5032744;28;20243;-80
2023/12/02 06:24:25;;;;;;;16.57;9.77;;;;;;;-0.62;100.00;97077.91;5032552;28;20210;-81
2023/12/02 06:26:51;;;;;;;17.33;8.97;;;;;;;-0.67;100.00;97085.91;5033055;28;20216;-81
2023/12/02 06:29:17;;;;;;;20.83;9.70;;;;;;;-0.69;100.00;97089.47;5032874;28;20215;-79
2023/12/02 06:31:44;;;;;;;21.90;10.67;;;;;;;-0.79;100.00;97091.59;5032758;28;20275;-81
2023/12/02 06:34:10;;;;;;;16.13;9.47;;;;;;;-0.78;100.00;97097.63;5032673;28;20234;-79
2023/12/02 06:36:37;;;;;;;17.20;9.77;;;;;;;-0.82;100.00;97093.44;5033084;28;20236;-78
2023/12/02 06:39:07;;;;;;;17.70;10.43;;;;;;;-0.72;100.00;97099.94;5033032;28;20644;-79
2023/12/02 06:41:33;;;;;;;18.27;10.70;;;;;;;-0.73;100.00;97100.88;5033920;28;20262;-79
2023/12/02 06:44:00;;;;;;;21.07;9.40;;;;;;;-0.78;100.00;97108.00;5032403;28;20286;-79
2023/12/02 06:46:26;;;;;;;20.67;10.00;;;;;;;-0.80;100.00;97104.63;5033693;28;20207;-79
2023/12/02 06:48:53;;;;;;;19.13;10.10;;;;;;;-0.88;100.00;97112.72;5033834;28;20230;-79
2023/12/02 06:51:21;;;;;;;20.93;10.17;;;;;;;-0.88;100.00;97119.63;5032944;28;20231;-79
2023/12/02 06:53:47;;;;;;;21.43;10.67;;;;;;;-0.88;100.00;97117.03;5032004;28;20250;-78
2023/12/02 06:56:19;;;;;;;21.37;10.73;;;;;;;-0.92;100.00;97110.31;5032146;28;20225;-81
2023/12/02 06:58:46;;;;;;;16.63;8.70;;;;;;;-0.96;100.00;97126.88;5032222;28;20212;-78
2023/12/02 07:01:22;;;;;;;16.93;8.93;;;;;;;-0.98;100.00;97120.94;5032763;28;20231;-80
2023/12/02 07:03:49;;;;;;;15.90;9.00;;;;;;;-1.10;100.00;97136.97;5031505;28;20208;-80
2023/12/02 07:06:16;;;;;;;18.27;9.50;;;;;;;-1.08;100.00;97142.91;5031929;28;20573;-80
2023/12/02 07:08:42;;;;;;;17.73;9.07;;;;;;;-1.10;100.00;97148.16;5034868;28;20271;-78
2023/12/02 07:11:09;;;;;;;16.90;9.40;;;;;;;-1.12;100.00;97149.97;5034031;28;20239;-78
2023/12/02 07:13:37;;;;;;;17.67;9.03;;;;;;;-1.14;100.00;97153.53;5035527;28;20212;-78
2023/12/02 07:16:04;;;;;;;18.13;9.37;;;;;;;-1.16;100.00;97155.34;5035930;28;20694;-81
2023/12/02 07:18:31;;;;;;;18.80;9.57;;;;;;;-1.14;100.00;97154.38;5035580;28;20273;-81
2023/12/02 07:20:57;;;;;;;19.53;8.97;;;;;;;-1.15;100.00;97167.41;5036679;28;20220;-81
2023/12/02 07:23:25;;;;;;;20.67;9.83;;;;;;;-1.20;100.00;97161.53;5035697;28;20211;-81
2023/12/02 07:25:52;;;;;;;17.13;9.13;;;;;;;-1.21;100.00;97176.28;5035617;28;20215;-78
2023/12/02 07:28:19;;;;;;;17.67;9.47;;;;;;;-1.22;100.00;97173.72;5036870;28;20590;-77
2023/12/02 07:30:48;;;;;;;16.47;8.83;;;;;;;-1.18;100.00;97175.31;5034668;28;20217;-79
2023/12/02 07:33:14;;;;;;;13.00;7.67;;;;;;;-1.15;100.00;97178.63;5034051;28;20318;-78
2023/12/02 07:35:42;;;;;;;16.63;9.40;;;;;;;-1.22;100.00;97189.28;5033739;28;20219;-80
2023/12/02 07:38:09;;;;;;;16.23;8.63;;;;;;;-1.16;100.00;97183.88;5032133;28;20227;-77
2023/12/02 07:40:36;;;;;;;16.77;8.37;;;;;;;-1.17;100.00;97177.00;5032267;28;20220;-77
2023/12/02 07:43:02;;;;;;;14.37;7.97;;;;;;;-1.19;100.00;97194.34;5033150;28;20298;-77
2023/12/02 07:45:29;;;;;;;16.53;8.63;;;;;;;-1.22;100.00;97194.47;5032979;28;20217;-78
2023/12/02 07:47:57;;;;;;;16.47;8.97;;;;;;;-1.21;100.00;97196.16;5032663;28;20219;-80
2023/12/02 07:50:24;;;;;;;15.63;8.53;;;;;;;-1.23;100.00;97205.75;5035587;28;20262;-80
2023/12/02 07:52:50;;;;;;;16.93;8.67;;;;;;;-1.19;100.00;97210.75;5034173;28;20713;-80
2023/12/02 07:55:17;;;;;;;16.33;8.13;;;;;;;-1.20;100.00;97208.19;5034051;28;20585;-78
2023/12/02 07:57:43;;;;;;;20.00;9.20;;;;;;;-1.37;100.00;97216.59;5034441;28;20235;-78
2023/12/02 08:00:11;;;;;;;14.40;7.87;;;;;;;-1.30;100.00;97223.25;5034754;28;20212;-77
2023/12/02 08:02:37;;;;;;;14.30;8.57;;;;;;;-1.26;100.00;97224.84;5034232;28;20258;-78
2023/12/02 08:05:06;;;;;;;18.83;8.93;;;;;;;-1.22;100.00;97226.41;5035209;28;20813;-79
2023/12/02 08:07:32;;;;;;;18.53;9.33;;;;;;;-1.16;100.00;97225.34;5036039;28;20240;-78
2023/12/02 08:09:59;;;;;;;14.70;8.30;;;;;;;-1.12;100.00;97237.28;5036487;28;20222;-78
2023/12/02 08:12:25;;;;;;;16.07;9.00;;;;;;;-1.15;100.00;97229.63;5034796;28;20228;-78
2023/12/02 08:14:52;;;;;;;18.97;9.77;;;;;;;-1.23;100.00;97239.44;5035479;28;20624;-78
2023/12/02 08:17:18;;;;;;;19.45;10.52;;;;;;;-1.17;100.00;97246.97;5034518;28;20465;-79
2023/12/02 08:19:45;;;;;;;18.90;10.27;;;;;;;-1.19;100.00;97256.53;5034542;28;20217;-78
2023/12/02 08:22:13;;;;;;;21.73;10.60;;;;;;;-1.14;100.00;97254.63;5034938;28;20311;-80
2023/12/02 08:24:42;;;;;;;20.43;10.47;;;;;;;-1.14;100.00;97255.50;5033425;28;20214;-77
2023/12/02 08:27:09;;;;;;;18.87;10.67;;;;;;;-1.14;100.00;97272.78;5032859;28;20227;-78
2023/12/02 08:29:35;;;;;;;22.40;12.13;;;;;;;-1.00;100.00;97271.38;5033183;28;20205;-77
2023/12/02 08:32:03;;;;;;;19.97;11.30;;;;;;;-1.09;100.00;97271.72;5033112;28;20242;-79
2023/12/02 08:34:30;;;;;;;19.13;10.93;;;;;;;-1.12;100.00;97274.41;5032868;28;20277;-79
2023/12/02 08:36:56;;;;;;;22.13;10.47;;;;;;;-1.07;100.00;97282.00;5033705;28;20233;-78
2023/12/02 08:39:24;;;;;;;18.53;10.17;;;;;;;-1.06;100.00;97283.72;5033650;28;20250;-79
2023/12/02 08:41:51;;;;;;;21.03;10.57;;;;;;;-1.09;100.00;97289.00;5033590;28;20413;-79
2023/12/02 08:44:17;;;;;;;19.80;10.67;;;;;;;-1.06;100.00;97296.69;5032901;28;20578;-77
2023/12/02 08:46:44;;;;;;;19.93;10.57;;;;;;;-1.16;100.00;97303.09;5032952;28;20211;-78
2023/12/02 08:49:13;;;;;;;19.83;10.70;;;;;;;-1.10;100.00;97297.69;5032642;28;20207;-77
2023/12/02 08:51:40;;;;;;;21.07;10.27;;;;;;;-1.16;100.00;97300.50;5034318;28;20234;-77
2023/12/02 08:54:06;;;;;;;20.70;10.77;;;;;;;-1.16;100.00;97297.91;5034324;28;20215;-80
2023/12/02 08:56:35;;;;;;;19.13;11.03;;;;;;;-1.18;100.00;97315.28;5032641;28;20236;-77
2023/12/02 08:59:01;;;;;;;19.63;10.77;;;;;;;-1.11;100.00;97311.56;5032625;28;20222;-77
2023/12/02 09:01:28;;;;;;;19.47;9.50;;;;;;;-1.05;100.00;97321.72;5032227;28;20322;-77
2023/12/02 09:03:55;;;;;;;21.70;9.60;;;;;;;-1.14;100.00;97327.22;5031719;28;20215;-77
2023/12/02 09:06:21;;;;;;;16.77;9.57;;;;;;;-1.18;100.00;97326.47;5032604;28;20211;-78
2023/12/02 09:08:48;;;;;;;20.43;9.27;;;;;;;-1.17;100.00;97327.34;5032994;28;20220;-80
2023/12/02 09:11:14;;;;;;;16.17;10.07;;;;;;;-0.98;100.00;97333.56;5034568;28;20231;-76
2023/12/02 09:13:47;;;;;;;20.37;10.47;;;;;;;-0.97;100.00;97340.44;5034254;28;20215;-79
2023/12/02 09:16:18;;;;;;;16.67;9.40;;;;;;;-1.00;100.00;97340.56;5032119;28;20679;-79
2023/12/02 09:18:45;;;;;;;14.20;9.37;;;;;;;-1.00;100.00;97345.75;5036200;28;20218;-80
2023/12/02 09:21:40;;;;;;;15.37;9.23;;;;;;;-1.01;100.00;97349.19;5036832;28;20228;-79
2023/12/02 09:24:33;;;;;;;17.73;9.30;;;;;;;-1.00;100.00;97356.09;5035900;28;20212;-79
2023/12/02 09:27:00;;;;;;;17.70;9.73;;;;;;;-0.91;100.00;97364.41;5038016;28;20208;-79
2023/12/02 09:29:34;;;;;;;16.03;8.83;;;;;;;-0.90;100.00;97368.69;5039978;28;20222;-79
2023/12/02 09:32:06;;;;;;;16.10;9.37;;;;;;;-1.02;100.00;97378.63;5039628;28;20236;-80
2023/12/02 09:34:58;;;;;;;15.37;9.00;;;;;;;-0.95;100.00;97391.34;5035184;28;20211;-80
2023/12/02 09:37:53;;;;;;;14.13;8.73;;;;;;;-0.97;100.00;97382.78;5043989;28;20226;-80
2023/12/02 09:40:36;;;;;;;16.80;9.30;;;;;;;-0.99;100.00;97396.69;5032650;28;20215;-78
2023/12/02 09:43:16;;;;;;;16.90;8.80;;;;;;;-1.13;100.00;97401.50;5033581;28;20242;-78
2023/12/02 09:45:56;;;;;;;14.97;8.37;;;;;;;-1.08;100.00;97395.25;5039093;28;20209;-78
2023/12/02 09:48:23;;;;;;;18.70;8.87;;;;;;;-1.00;100.00;97388.06;5039724;28;20207;-79
2023/12/02 09:50:58;;;;;;;13.67;8.43;;;;;;;-0.99;100.00;97396.69;5039048;28;20215;-79
2023/12/02 09:53:36;;;;;;;14.50;8.73;;;;;;;-0.99;100.00;97396.69;5034602;28;20226;-77
2023/12/02 09:56:11;;;;;;;14.20;8.57;;;;;;;-1.11;100.00;97389.34;5032894;28;20208;-78
2023/12/02 09:58:43;;;;;;;15.07;8.90;;;;;;;-1.10;100.00;97388.44;5051178;28;20214;-78
2023/12/02 10:01:21;;;;;;;17.00;8.77;;;;;;;-1.20;100.00;97390.50;5053378;28;20245;-79
2023/12/02 10:04:03;;;;;;;12.80;8.00;;;;;;;-1.12;100.00;97377.28;5058713;28;20222;-78
2023/12/02 10:06:48;;;;;;;18.73;11.13;;;;;;;-1.02;100.00;97396.78;5048963;28;20932;-78
2023/12/02 10:09:33;;;;;;;15.27;8.90;;;;;;;-1.06;100.00;97397.81;5046723;28;20219;-79
2023/12/02 10:12:10;;;;;;;15.33;8.37;;;;;;;-1.03;100.00;97395.09;5056343;28;20241;-79
2023/12/02 10:14:41;;;;;;;14.43;9.23;;;;;;;-1.04;100.00;97385.63;5051530;28;20229;-77
2023/12/02 10:17:13;;;;;;;11.90;7.57;;;;;;;-1.05;100.00;97394.31;5051905;28;20234;-77
2023/12/02 10:19:41;;;;;;;14.60;8.83;;;;;;;-0.94;100.00;97400.81;5050993;28;20217;-78
2023/12/02 10:22:11;;;;;;;16.50;9.37;;;;;;;-0.95;100.00;97400.84;5050751;28;20239;-77
2023/12/02 10:24:44;;;;;;;15.70;8.03;;;;;;;-0.87;100.00;97404.03;5044231;28;20226;-79
2023/12/02 10:27:15;;;;;;;14.83;8.43;;;;;;;-1.00;100.00;97403.59;5030409;28;20211;-78
2023/12/02 10:29:56;;;;;;;17.63;9.30;;;;;;;-1.09;100.00;97409.13;5031934;28;20208;-78
2023/12/02 10:32:33;;;;;;;15.57;9.43;;;;;;;-1.03;100.00;97402.88;5030950;28;20233;-79
2023/12/02 10:35:11;;;;;;;16.97;9.10;;;;;;;-0.99;100.00;97404.47;5029918;28;20214;-78
2023/12/02 10:37:42;;;;;;;13.60;7.47;;;;;;;-1.01;100.00;97406.25;5035256;28;20231;-77
2023/12/02 10:40:10;;;;;;;12.67;7.77;;;;;;;-1.06;100.00;97413.38;5046622;28;20206;-78
2023/12/02 10:42:56;;;;;;;11.80;6.60;;;;;;;-1.18;100.00;97411.19;5052083;28;20247;-78
2023/12/02 10:45:25;;;;;;;12.20;7.00;;;;;;;-1.20;100.00;97411.25;5052692;28;20229;-77
2023/12/02 10:47:53;;;;;;;15.93;7.83;;;;;;;-1.09;100.00;97418.66;5043255;28;20654;-79
2023/12/02 10:50:21;;;;;;;13.00;6.83;;;;;;;-1.08;100.00;97428.97;5049239;28;20223;-79
2023/12/02 10:52:58;;;;;;;11.53;6.93;;;;;;;-1.12;100.00;97423.94;5057306;28;20228;-79
2023/12/02 10:55:27;;;;;;;10.07;6.47;;;;;;;-1.22;100.00;97430.34;5060157;28;20249;-78
2023/12/02 10:57:55;;;;;;;13.03;7.20;;;;;;;-1.26;100.00;97427.00;5043969;28;20223;-78
2023/12/02 11:00:27;;;;;;;11.53;6.97;;;;;;;-1.27;100.00;97437.41;5042296;28;20209;-79
2023/12/02 11:03:00;;;;;;;11.10;7.10;;;;;;;-1.29;100.00;97431.44;5039018;28;20739;-79
2023/12/02 11:05:32;;;;;;;12.83;7.23;;;;;;;-1.29;100.00;97442.66;5043306;28;20736;-78
2023/12/02 11:08:04;;;;;;;10.50;6.30;;;;;;;-1.22;100.00;97444.13;5038900;28;20227;-78
2023/12/02 11:10:35;;;;;;;13.17;7.23;;;;;;;-1.25;100.00;97444.25;5036459;28;20211;-77
2023/12/02 11:13:05;;;;;;;10.63;6.90;;;;;;;-1.22;100.00;97445.91;5040401;28;20235;-78
2023/12/02 11:15:39;;;;;;;13.37;7.47;;;;;;;-1.12;100.00;97461.06;5037153;28;20685;-79
2023/12/02 11:18:12;;;;;;;10.43;6.07;;;;;;;-1.09;100.00;97460.13;5034379;28;20231;-77